Terminal Aerodrome Forecast
Issued by NWS Shreveport, LA

Home | Current Version | Previous Version | Text Only | Print | Product List | Glossary On
Versions: 1 2 3 4 5 6 7 8 9 10 11 12 13 14
581
FTUS44 KSHV 252347
TAFSHV
TAF
KSHV 252347Z 2600/2624 17011KT P6SM SCT280
     FM261100 19010KT P6SM SCT015
      TEMPO 2612/2614 20013G19KT OVC015
     FM261400 20013G22KT P6SM OVC015
     FM262100 20015G24KT P6SM FEW030 BKN045=

USA.gov is the U.S. government's official web portal to all federal, state and local government web resources and services.